sensor_id;sensor_type;location;lat;lon;timestamp;temperature;humidity
62424;DHT22;48463;43.604;3.872;2023-05-01T00:00:58;16.30;99.90
62424;DHT22;48463;43.604;3.872;2023-05-01T00:03:25;16.30;99.90
62424;DHT22;48463;43.604;3.872;2023-05-01T00:05:51;16.00;99.90
62424;DHT22;48463;43.604;3.872;2023-05-01T00:08:23;15.90;99.90
62424;DHT22;48463;43.604;3.872;2023-05-01T00:10:49;15.90;99.90
62424;DHT22;48463;43.604;3.872;2023-05-01T00:13:14;15.80;99.90
62424;DHT22;48463;43.604;3.872;2023-05-01T00:15:42;16.00;99.90
62424;DHT22;48463;43.604;3.872;2023-05-01T00:18:07;16.00;99.90
62424;DHT22;48463;43.604;3.872;2023-05-01T00:20:33;16.10;99.90
62424;DHT22;48463;43.604;3.872;2023-05-01T00:22:59;16.10;99.90
62424;DHT22;48463;43.604;3.872;2023-05-01T00:25:24;16.10;99.90
62424;DHT22;48463;43.604;3.872;2023-05-01T00:27:50;16.00;99.90
62424;DHT22;48463;43.604;3.872;2023-05-01T00:30:16;15.90;99.90
62424;DHT22;48463;43.604;3.872;2023-05-01T00:32:41;15.90;99.90
62424;DHT22;48463;43.604;3.872;2023-05-01T00:35:07;15.60;99.90
62424;DHT22;48463;43.604;3.872;2023-05-01T00:37:33;15.70;99.90
62424;DHT22;48463;43.604;3.872;2023-05-01T00:39:59;15.90;99.90
62424;DHT22;48463;43.604;3.872;2023-05-01T00:42:25;15.80;99.90
62424;DHT22;48463;43.604;3.872;2023-05-01T00:44:50;15.90;99.90
62424;DHT22;48463;43.604;3.872;2023-05-01T00:47:16;15.90;99.90
62424;DHT22;48463;43.604;3.872;2023-05-01T00:49:43;15.90;99.90
62424;DHT22;48463;43.604;3.872;2023-05-01T00:52:10;15.80;99.90
62424;DHT22;48463;43.604;3.872;2023-05-01T00:54:36;15.90;99.90
62424;DHT22;48463;43.604;3.872;2023-05-01T00:57:02;15.90;99.90
62424;DHT22;48463;43.604;3.872;2023-05-01T00:59:28;15.90;99.90
62424;DHT22;48463;43.604;3.872;2023-05-01T01:01:54;15.90;99.90
62424;DHT22;48463;43.604;3.872;2023-05-01T01:04:20;15.80;99.90
62424;DHT22;48463;43.604;3.872;2023-05-01T01:06:55;15.80;99.90
62424;DHT22;48463;43.604;3.872;2023-05-01T01:12:35;15.80;99.90
62424;DHT22;48463;43.604;3.872;2023-05-01T01:17:37;15.80;99.90
62424;DHT22;48463;43.604;3.872;2023-05-01T01:34:32;16.00;99.90
62424;DHT22;48463;43.604;3.872;2023-05-01T01:37:22;15.90;99.90
62424;DHT22;48463;43.604;3.872;2023-05-01T01:39:55;15.80;99.90
62424;DHT22;48463;43.604;3.872;2023-05-01T01:42:50;15.80;99.90
62424;DHT22;48463;43.604;3.872;2023-05-01T01:45:20;15.90;99.90
62424;DHT22;48463;43.604;3.872;2023-05-01T01:47:48;15.90;99.90
62424;DHT22;48463;43.604;3.872;2023-05-01T01:50:17;15.90;99.90
62424;DHT22;48463;43.604;3.872;2023-05-01T01:52:48;16.00;99.90
62424;DHT22;48463;43.604;3.872;2023-05-01T01:55:16;15.90;99.90
62424;DHT22;48463;43.604;3.872;2023-05-01T01:57:47;15.90;99.90
62424;DHT22;48463;43.604;3.872;2023-05-01T02:00:14;15.80;99.90
62424;DHT22;48463;43.604;3.872;2023-05-01T02:02:41;15.70;99.90
62424;DHT22;48463;43.604;3.872;2023-05-01T02:05:10;15.70;99.90
62424;DHT22;48463;43.604;3.872;2023-05-01T02:07:38;15.70;99.90
62424;DHT22;48463;43.604;3.872;2023-05-01T02:10:09;15.60;99.90
62424;DHT22;48463;43.604;3.872;2023-05-01T02:12:36;15.60;99.90
62424;DHT22;48463;43.604;3.872;2023-05-01T02:15:02;15.50;99.90
62424;DHT22;48463;43.604;3.872;2023-05-01T02:17:31;15.50;99.90
62424;DHT22;48463;43.604;3.872;2023-05-01T02:19:58;15.40;99.90
62424;DHT22;48463;43.604;3.872;2023-05-01T02:22:25;15.30;99.90
62424;DHT22;48463;43.604;3.872;2023-05-01T02:24:53;15.30;99.90
62424;DHT22;48463;43.604;3.872;2023-05-01T02:27:22;15.30;99.90
62424;DHT22;48463;43.604;3.872;2023-05-01T02:29:50;15.60;99.90
62424;DHT22;48463;43.604;3.872;2023-05-01T02:32:16;15.60;99.90
62424;DHT22;48463;43.604;3.872;2023-05-01T02:34:42;15.60;99.90
62424;DHT22;48463;43.604;3.872;2023-05-01T02:37:10;15.70;99.90
62424;DHT22;48463;43.604;3.872;2023-05-01T02:39:37;15.80;99.90
62424;DHT22;48463;43.604;3.872;2023-05-01T02:42:04;15.70;99.90
62424;DHT22;48463;43.604;3.872;2023-05-01T02:44:39;15.90;99.90
62424;DHT22;48463;43.604;3.872;2023-05-01T02:47:08;15.90;99.90
62424;DHT22;48463;43.604;3.872;2023-05-01T02:49:35;15.90;99.90
62424;DHT22;48463;43.604;3.872;2023-05-01T02:52:02;15.70;99.90
62424;DHT22;48463;43.604;3.872;2023-05-01T02:54:29;15.60;99.90
62424;DHT22;48463;43.604;3.872;2023-05-01T02:56:55;15.60;99.90
62424;DHT22;48463;43.604;3.872;2023-05-01T02:59:23;15.70;99.90
62424;DHT22;48463;43.604;3.872;2023-05-01T03:01:49;15.70;99.90
62424;DHT22;48463;43.604;3.872;2023-05-01T03:04:16;15.40;99.90
62424;DHT22;48463;43.604;3.872;2023-05-01T03:06:41;15.20;99.90
62424;DHT22;48463;43.604;3.872;2023-05-01T03:09:08;14.90;99.90
62424;DHT22;48463;43.604;3.872;2023-05-01T03:11:34;15.20;99.90
62424;DHT22;48463;43.604;3.872;2023-05-01T03:14:00;15.10;99.90
62424;DHT22;48463;43.604;3.872;2023-05-01T03:16:25;15.10;99.90
62424;DHT22;48463;43.604;3.872;2023-05-01T03:18:51;15.20;99.90
62424;DHT22;48463;43.604;3.872;2023-05-01T03:21:17;15.20;99.90
62424;DHT22;48463;43.604;3.872;2023-05-01T03:23:43;15.20;99.90
62424;DHT22;48463;43.604;3.872;2023-05-01T03:26:08;15.20;99.90
62424;DHT22;48463;43.604;3.872;2023-05-01T03:28:34;15.20;99.90
62424;DHT22;48463;43.604;3.872;2023-05-01T03:31:00;15.20;99.90
62424;DHT22;48463;43.604;3.872;2023-05-01T03:33:25;15.20;99.90
62424;DHT22;48463;43.604;3.872;2023-05-01T03:35:59;15.10;99.90
62424;DHT22;48463;43.604;3.872;2023-05-01T03:38:26;15.20;99.90
62424;DHT22;48463;43.604;3.872;2023-05-01T03:40:52;15.20;99.90
62424;DHT22;48463;43.604;3.872;2023-05-01T03:43:18;15.20;99.90
62424;DHT22;48463;43.604;3.872;2023-05-01T03:45:43;15.30;99.90
62424;DHT22;48463;43.604;3.872;2023-05-01T03:48:09;15.30;99.90
62424;DHT22;48463;43.604;3.872;2023-05-01T03:50:35;15.30;99.90
62424;DHT22;48463;43.604;3.872;2023-05-01T03:53:01;15.30;99.90
62424;DHT22;48463;43.604;3.872;2023-05-01T03:55:26;15.30;99.90
62424;DHT22;48463;43.604;3.872;2023-05-01T03:57:52;15.30;99.90
62424;DHT22;48463;43.604;3.872;2023-05-01T04:00:18;15.20;99.90
62424;DHT22;48463;43.604;3.872;2023-05-01T04:02:44;15.30;99.90
62424;DHT22;48463;43.604;3.872;2023-05-01T04:05:09;15.30;99.90
62424;DHT22;48463;43.604;3.872;2023-05-01T04:07:35;15.30;99.90
62424;DHT22;48463;43.604;3.872;2023-05-01T04:10:02;15.30;99.90
62424;DHT22;48463;43.604;3.872;2023-05-01T04:12:27;15.20;99.90
62424;DHT22;48463;43.604;3.872;2023-05-01T04:14:53;15.20;99.90
62424;DHT22;48463;43.604;3.872;2023-05-01T04:17:19;15.10;99.90
62424;DHT22;48463;43.604;3.872;2023-05-01T04:19:44;15.10;99.90
62424;DHT22;48463;43.604;3.872;2023-05-01T04:22:12;15.10;99.90
62424;DHT22;48463;43.604;3.872;2023-05-01T04:24:37;15.00;99.90
62424;DHT22;48463;43.604;3.872;2023-05-01T04:27:03;15.00;99.90
62424;DHT22;48463;43.604;3.872;2023-05-01T04:29:30;15.10;99.90
62424;DHT22;48463;43.604;3.872;2023-05-01T04:31:55;15.10;99.90
62424;DHT22;48463;43.604;3.872;2023-05-01T04:34:21;15.00;99.90
62424;DHT22;48463;43.604;3.872;2023-05-01T04:36:47;15.00;99.90
62424;DHT22;48463;43.604;3.872;2023-05-01T04:39:13;15.00;99.90
62424;DHT22;48463;43.604;3.872;2023-05-01T04:41:40;15.00;99.90
62424;DHT22;48463;43.604;3.872;2023-05-01T04:44:06;14.90;99.90
62424;DHT22;48463;43.604;3.872;2023-05-01T04:46:31;14.80;99.90
62424;DHT22;48463;43.604;3.872;2023-05-01T04:48:57;14.80;99.90
62424;DHT22;48463;43.604;3.872;2023-05-01T04:51:23;14.80;99.90
62424;DHT22;48463;43.604;3.872;2023-05-01T04:53:49;14.80;99.90
62424;DHT22;48463;43.604;3.872;2023-05-01T04:56:14;14.80;99.90
62424;DHT22;48463;43.604;3.872;2023-05-01T04:58:40;14.70;99.90
62424;DHT22;48463;43.604;3.872;2023-05-01T05:01:06;14.70;99.90
62424;DHT22;48463;43.604;3.872;2023-05-01T05:03:32;14.70;99.90
62424;DHT22;48463;43.604;3.872;2023-05-01T05:05:57;14.70;99.90
62424;DHT22;48463;43.604;3.872;2023-05-01T05:08:23;14.80;99.90
62424;DHT22;48463;43.604;3.872;2023-05-01T05:10:49;14.90;99.90
62424;DHT22;48463;43.604;3.872;2023-05-01T05:13:20;14.90;99.90
62424;DHT22;48463;43.604;3.872;2023-05-01T05:15:45;14.90;99.90
62424;DHT22;48463;43.604;3.872;2023-05-01T05:18:11;14.90;99.90
62424;DHT22;48463;43.604;3.872;2023-05-01T05:20:37;14.90;99.90
62424;DHT22;48463;43.604;3.872;2023-05-01T05:23:04;14.90;99.90
62424;DHT22;48463;43.604;3.872;2023-05-01T05:25:30;14.90;99.90
62424;DHT22;48463;43.604;3.872;2023-05-01T05:27:55;15.00;99.90
62424;DHT22;48463;43.604;3.872;2023-05-01T05:30:25;15.00;99.90
62424;DHT22;48463;43.604;3.872;2023-05-01T05:32:50;15.00;99.90
62424;DHT22;48463;43.604;3.872;2023-05-01T05:35:16;15.10;99.90
62424;DHT22;48463;43.604;3.872;2023-05-01T05:37:42;15.10;99.90
62424;DHT22;48463;43.604;3.872;2023-05-01T05:40:08;15.20;99.90
62424;DHT22;48463;43.604;3.872;2023-05-01T05:42:34;15.20;99.90
62424;DHT22;48463;43.604;3.872;2023-05-01T05:44:59;15.20;99.90
62424;DHT22;48463;43.604;3.872;2023-05-01T05:47:25;15.30;99.90
62424;DHT22;48463;43.604;3.872;2023-05-01T05:49:51;15.40;99.90
62424;DHT22;48463;43.604;3.872;2023-05-01T05:52:16;15.50;99.90
62424;DHT22;48463;43.604;3.872;2023-05-01T05:54:42;15.50;99.90
62424;DHT22;48463;43.604;3.872;2023-05-01T05:57:08;15.60;99.90
62424;DHT22;48463;43.604;3.872;2023-05-01T05:59:33;15.60;99.90
62424;DHT22;48463;43.604;3.872;2023-05-01T06:01:59;15.70;99.90
62424;DHT22;48463;43.604;3.872;2023-05-01T06:04:25;15.80;99.90
62424;DHT22;48463;43.604;3.872;2023-05-01T06:06:51;15.80;99.90
62424;DHT22;48463;43.604;3.872;2023-05-01T06:09:16;15.80;99.90
62424;DHT22;48463;43.604;3.872;2023-05-01T06:11:43;15.90;99.90
62424;DHT22;48463;43.604;3.872;2023-05-01T06:14:09;15.90;99.90
62424;DHT22;48463;43.604;3.872;2023-05-01T06:16:35;16.00;99.90
62424;DHT22;48463;43.604;3.872;2023-05-01T06:19:02;16.00;99.90
62424;DHT22;48463;43.604;3.872;2023-05-01T06:21:27;16.10;99.90
62424;DHT22;48463;43.604;3.872;2023-05-01T06:23:53;16.10;99.90
62424;DHT22;48463;43.604;3.872;2023-05-01T06:26:19;16.20;99.90
62424;DHT22;48463;43.604;3.872;2023-05-01T06:28:45;16.30;99.90
62424;DHT22;48463;43.604;3.872;2023-05-01T06:31:11;16.40;99.90
62424;DHT22;48463;43.604;3.872;2023-05-01T06:33:37;16.50;99.90
62424;DHT22;48463;43.604;3.872;2023-05-01T06:36:03;16.50;99.90
62424;DHT22;48463;43.604;3.872;2023-05-01T06:38:28;16.70;99.90
62424;DHT22;48463;43.604;3.872;2023-05-01T06:40:54;16.70;99.90
62424;DHT22;48463;43.604;3.872;2023-05-01T06:43:20;16.80;99.70
62424;DHT22;48463;43.604;3.872;2023-05-01T06:45:46;16.90;99.10
62424;DHT22;48463;43.604;3.872;2023-05-01T06:48:12;17.00;98.70
62424;DHT22;48463;43.604;3.872;2023-05-01T06:50:37;17.00;99.10
62424;DHT22;48463;43.604;3.872;2023-05-01T06:53:03;17.10;99.20
62424;DHT22;48463;43.604;3.872;2023-05-01T06:55:29;17.20;98.70
62424;DHT22;48463;43.604;3.872;2023-05-01T06:57:58;17.20;99.10
62424;DHT22;48463;43.604;3.872;2023-05-01T07:00:24;17.20;97.90
62424;DHT22;48463;43.604;3.872;2023-05-01T07:02:50;17.30;97.90
62424;DHT22;48463;43.604;3.872;2023-05-01T07:05:15;17.40;97.30
62424;DHT22;48463;43.604;3.872;2023-05-01T07:07:41;17.40;97.30
62424;DHT22;48463;43.604;3.872;2023-05-01T07:10:07;17.60;97.40
62424;DHT22;48463;43.604;3.872;2023-05-01T07:12:33;17.70;97.10
62424;DHT22;48463;43.604;3.872;2023-05-01T07:14:58;17.70;97.10
62424;DHT22;48463;43.604;3.872;2023-05-01T07:17:24;17.80;97.10
62424;DHT22;48463;43.604;3.872;2023-05-01T07:19:50;17.80;96.60
62424;DHT22;48463;43.604;3.872;2023-05-01T07:22:18;17.80;96.80
62424;DHT22;48463;43.604;3.872;2023-05-01T07:24:43;18.00;97.40
62424;DHT22;48463;43.604;3.872;2023-05-01T07:27:09;18.10;96.60
62424;DHT22;48463;43.604;3.872;2023-05-01T07:29:39;18.20;96.90
62424;DHT22;48463;43.604;3.872;2023-05-01T07:32:05;18.20;96.80
62424;DHT22;48463;43.604;3.872;2023-05-01T07:34:31;18.30;96.40
62424;DHT22;48463;43.604;3.872;2023-05-01T07:36:58;18.40;97.20
62424;DHT22;48463;43.604;3.872;2023-05-01T07:39:24;18.50;96.00
62424;DHT22;48463;43.604;3.872;2023-05-01T07:41:50;18.70;96.30
62424;DHT22;48463;43.604;3.872;2023-05-01T07:44:16;18.80;96.20
62424;DHT22;48463;43.604;3.872;2023-05-01T07:46:41;18.90;95.20
62424;DHT22;48463;43.604;3.872;2023-05-01T07:49:07;18.90;95.20
62424;DHT22;48463;43.604;3.872;2023-05-01T07:51:33;18.80;95.00
62424;DHT22;48463;43.604;3.872;2023-05-01T07:53:59;18.90;95.50
62424;DHT22;48463;43.604;3.872;2023-05-01T07:56:29;18.90;95.60
62424;DHT22;48463;43.604;3.872;2023-05-01T07:58:55;19.00;95.40
62424;DHT22;48463;43.604;3.872;2023-05-01T08:01:21;18.80;94.90
62424;DHT22;48463;43.604;3.872;2023-05-01T08:03:47;18.80;95.10
62424;DHT22;48463;43.604;3.872;2023-05-01T08:06:12;18.70;95.50
62424;DHT22;48463;43.604;3.872;2023-05-01T08:08:38;18.90;96.00
62424;DHT22;48463;43.604;3.872;2023-05-01T08:11:04;19.00;95.30
62424;DHT22;48463;43.604;3.872;2023-05-01T08:13:30;19.00;95.40
62424;DHT22;48463;43.604;3.872;2023-05-01T08:16:02;19.10;94.60
62424;DHT22;48463;43.604;3.872;2023-05-01T08:18:29;19.10;95.00
62424;DHT22;48463;43.604;3.872;2023-05-01T08:20:55;19.20;95.10
62424;DHT22;48463;43.604;3.872;2023-05-01T08:23:21;19.30;94.70
62424;DHT22;48463;43.604;3.872;2023-05-01T08:25:50;19.30;94.60
62424;DHT22;48463;43.604;3.872;2023-05-01T08:28:16;19.20;94.80
62424;DHT22;48463;43.604;3.872;2023-05-01T08:30:44;19.30;94.60
62424;DHT22;48463;43.604;3.872;2023-05-01T08:33:10;19.30;94.40
62424;DHT22;48463;43.604;3.872;2023-05-01T08:35:36;19.50;93.60
62424;DHT22;48463;43.604;3.872;2023-05-01T08:38:01;19.40;93.30
62424;DHT22;48463;43.604;3.872;2023-05-01T08:40:31;19.30;93.10
62424;DHT22;48463;43.604;3.872;2023-05-01T08:42:59;19.60;93.50
62424;DHT22;48463;43.604;3.872;2023-05-01T08:45:27;19.50;92.70
62424;DHT22;48463;43.604;3.872;2023-05-01T08:47:57;19.70;92.70
62424;DHT22;48463;43.604;3.872;2023-05-01T08:50:24;19.70;92.40
62424;DHT22;48463;43.604;3.872;2023-05-01T08:52:51;19.80;92.20
62424;DHT22;48463;43.604;3.872;2023-05-01T08:55:18;19.80;92.00
62424;DHT22;48463;43.604;3.872;2023-05-01T08:57:46;19.80;92.20
62424;DHT22;48463;43.604;3.872;2023-05-01T09:00:19;19.80;92.00
62424;DHT22;48463;43.604;3.872;2023-05-01T09:02:46;19.90;92.20
62424;DHT22;48463;43.604;3.872;2023-05-01T09:05:17;20.20;92.40
62424;DHT22;48463;43.604;3.872;2023-05-01T09:07:43;20.00;91.70
62424;DHT22;48463;43.604;3.872;2023-05-01T09:10:15;20.20;92.10
62424;DHT22;48463;43.604;3.872;2023-05-01T09:12:41;20.10;90.80
62424;DHT22;48463;43.604;3.872;2023-05-01T09:15:11;20.40;91.50
62424;DHT22;48463;43.604;3.872;2023-05-01T09:17:37;20.30;90.60
62424;DHT22;48463;43.604;3.872;2023-05-01T09:20:03;20.40;90.90
62424;DHT22;48463;43.604;3.872;2023-05-01T09:22:32;20.50;90.20
62424;DHT22;48463;43.604;3.872;2023-05-01T09:24:59;20.30;89.80
62424;DHT22;48463;43.604;3.872;2023-05-01T09:27:33;20.50;90.00
62424;DHT22;48463;43.604;3.872;2023-05-01T09:29:59;20.50;88.60
62424;DHT22;48463;43.604;3.872;2023-05-01T09:32:26;20.40;88.00
62424;DHT22;48463;43.604;3.872;2023-05-01T09:35:08;20.60;87.50
62424;DHT22;48463;43.604;3.872;2023-05-01T09:37:34;20.80;87.90
62424;DHT22;48463;43.604;3.872;2023-05-01T09:42:30;20.80;86.10
62424;DHT22;48463;43.604;3.872;2023-05-01T09:44:59;20.70;85.60
62424;DHT22;48463;43.604;3.872;2023-05-01T09:47:28;20.80;84.30
62424;DHT22;48463;43.604;3.872;2023-05-01T09:49:55;21.10;86.80
62424;DHT22;48463;43.604;3.872;2023-05-01T09:52:29;21.00;85.40
62424;DHT22;48463;43.604;3.872;2023-05-01T09:55:17;21.40;85.90
62424;DHT22;48463;43.604;3.872;2023-05-01T09:57:45;21.50;85.00
62424;DHT22;48463;43.604;3.872;2023-05-01T10:00:13;21.50;82.70
62424;DHT22;48463;43.604;3.872;2023-05-01T10:02:42;21.60;81.50
62424;DHT22;48463;43.604;3.872;2023-05-01T10:05:09;21.60;81.60
62424;DHT22;48463;43.604;3.872;2023-05-01T10:07:35;21.30;81.40
62424;DHT22;48463;43.604;3.872;2023-05-01T10:10:19;21.50;82.20
62424;DHT22;48463;43.604;3.872;2023-05-01T10:12:46;21.70;82.70
62424;DHT22;48463;43.604;3.872;2023-05-01T10:15:13;21.80;81.50
62424;DHT22;48463;43.604;3.872;2023-05-01T10:17:40;21.80;80.70
62424;DHT22;48463;43.604;3.872;2023-05-01T10:20:08;21.80;81.00
62424;DHT22;48463;43.604;3.872;2023-05-01T10:22:34;21.60;79.90
62424;DHT22;48463;43.604;3.872;2023-05-01T10:25:00;21.80;79.90
62424;DHT22;48463;43.604;3.872;2023-05-01T10:27:26;21.60;79.80
62424;DHT22;48463;43.604;3.872;2023-05-01T10:29:52;21.80;80.10
62424;DHT22;48463;43.604;3.872;2023-05-01T10:32:19;21.80;79.50
62424;DHT22;48463;43.604;3.872;2023-05-01T10:34:56;21.90;80.20
62424;DHT22;48463;43.604;3.872;2023-05-01T10:37:47;21.90;79.00
62424;DHT22;48463;43.604;3.872;2023-05-01T10:43:24;22.30;79.70
62424;DHT22;48463;43.604;3.872;2023-05-01T10:51:22;22.30;79.20
62424;DHT22;48463;43.604;3.872;2023-05-01T10:59:00;22.40;78.50
62424;DHT22;48463;43.604;3.872;2023-05-01T11:01:41;22.60;79.00
62424;DHT22;48463;43.604;3.872;2023-05-01T11:12:10;22.80;77.60
62424;DHT22;48463;43.604;3.872;2023-05-01T11:20:09;23.10;76.40
62424;DHT22;48463;43.604;3.872;2023-05-01T11:22:37;23.20;76.30
62424;DHT22;48463;43.604;3.872;2023-05-01T11:25:18;22.90;75.40
62424;DHT22;48463;43.604;3.872;2023-05-01T11:27:56;23.00;76.00
62424;DHT22;48463;43.604;3.872;2023-05-01T11:30:22;23.20;75.30
62424;DHT22;48463;43.604;3.872;2023-05-01T11:32:50;23.20;75.90
62424;DHT22;48463;43.604;3.872;2023-05-01T11:35:17;23.50;76.40
62424;DHT22;48463;43.604;3.872;2023-05-01T11:37:44;23.20;73.80
62424;DHT22;48463;43.604;3.872;2023-05-01T11:42:49;23.00;73.50
62424;DHT22;48463;43.604;3.872;2023-05-01T11:45:15;23.30;74.40
62424;DHT22;48463;43.604;3.872;2023-05-01T11:47:41;22.80;73.10
62424;DHT22;48463;43.604;3.872;2023-05-01T11:50:08;23.10;74.00
62424;DHT22;48463;43.604;3.872;2023-05-01T11:52:48;23.20;73.90
62424;DHT22;48463;43.604;3.872;2023-05-01T11:55:15;23.60;74.10
62424;DHT22;48463;43.604;3.872;2023-05-01T11:57:51;23.20;73.00
62424;DHT22;48463;43.604;3.872;2023-05-01T12:00:31;23.00;72.80
62424;DHT22;48463;43.604;3.872;2023-05-01T12:03:12;22.70;72.00
62424;DHT22;48463;43.604;3.872;2023-05-01T12:05:40;22.80;73.50
62424;DHT22;48463;43.604;3.872;2023-05-01T12:10:38;23.40;72.30
62424;DHT22;48463;43.604;3.872;2023-05-01T12:13:05;23.10;71.30
62424;DHT22;48463;43.604;3.872;2023-05-01T12:15:37;23.40;70.80
62424;DHT22;48463;43.604;3.872;2023-05-01T12:18:04;23.70;71.40
62424;DHT22;48463;43.604;3.872;2023-05-01T12:22:59;23.80;70.90
62424;DHT22;48463;43.604;3.872;2023-05-01T12:25:35;24.10;70.10
62424;DHT22;48463;43.604;3.872;2023-05-01T12:28:15;23.70;69.20
62424;DHT22;48463;43.604;3.872;2023-05-01T12:30:43;23.70;68.60
62424;DHT22;48463;43.604;3.872;2023-05-01T12:35:38;24.00;70.00
62424;DHT22;48463;43.604;3.872;2023-05-01T12:40:57;24.20;70.00
62424;DHT22;48463;43.604;3.872;2023-05-01T12:43:34;24.20;70.30
62424;DHT22;48463;43.604;3.872;2023-05-01T12:46:03;24.30;69.50
62424;DHT22;48463;43.604;3.872;2023-05-01T12:48:30;24.50;69.70
62424;DHT22;48463;43.604;3.872;2023-05-01T12:50:59;24.40;68.90
62424;DHT22;48463;43.604;3.872;2023-05-01T12:53:26;24.30;69.00
62424;DHT22;48463;43.604;3.872;2023-05-01T12:55:54;24.50;69.40
62424;DHT22;48463;43.604;3.872;2023-05-01T12:58:21;24.30;69.10
62424;DHT22;48463;43.604;3.872;2023-05-01T13:00:54;24.50;68.90
62424;DHT22;48463;43.604;3.872;2023-05-01T13:03:25;24.20;69.00
62424;DHT22;48463;43.604;3.872;2023-05-01T13:06:01;24.00;69.30
62424;DHT22;48463;43.604;3.872;2023-05-01T13:08:36;24.20;68.90
62424;DHT22;48463;43.604;3.872;2023-05-01T13:11:13;23.60;70.60
62424;DHT22;48463;43.604;3.872;2023-05-01T13:13:39;24.30;71.50
62424;DHT22;48463;43.604;3.872;2023-05-01T13:16:07;24.30;70.10
62424;DHT22;48463;43.604;3.872;2023-05-01T13:18:44;24.50;70.80
62424;DHT22;48463;43.604;3.872;2023-05-01T13:21:12;25.00;71.40
62424;DHT22;48463;43.604;3.872;2023-05-01T13:23:40;25.00;68.60
62424;DHT22;48463;43.604;3.872;2023-05-01T13:26:07;24.10;68.50
62424;DHT22;48463;43.604;3.872;2023-05-01T13:28:43;24.00;70.10
62424;DHT22;48463;43.604;3.872;2023-05-01T13:31:13;24.40;70.40
62424;DHT22;48463;43.604;3.872;2023-05-01T13:33:42;24.10;71.10
62424;DHT22;48463;43.604;3.872;2023-05-01T13:36:09;24.20;70.60
62424;DHT22;48463;43.604;3.872;2023-05-01T13:38:50;24.50;71.00
62424;DHT22;48463;43.604;3.872;2023-05-01T13:41:20;25.00;70.60
62424;DHT22;48463;43.604;3.872;2023-05-01T13:43:48;24.60;70.00
62424;DHT22;48463;43.604;3.872;2023-05-01T13:46:16;24.40;71.30
62424;DHT22;48463;43.604;3.872;2023-05-01T13:48:43;24.20;71.60
62424;DHT22;48463;43.604;3.872;2023-05-01T13:51:11;24.20;73.10
62424;DHT22;48463;43.604;3.872;2023-05-01T13:53:39;24.80;73.50
62424;DHT22;48463;43.604;3.872;2023-05-01T13:56:06;25.00;73.40
62424;DHT22;48463;43.604;3.872;2023-05-01T13:58:33;24.40;72.10
62424;DHT22;48463;43.604;3.872;2023-05-01T14:01:00;24.60;71.60
62424;DHT22;48463;43.604;3.872;2023-05-01T14:03:38;24.70;70.90
62424;DHT22;48463;43.604;3.872;2023-05-01T14:06:08;24.70;70.60
62424;DHT22;48463;43.604;3.872;2023-05-01T14:08:34;25.10;70.40
62424;DHT22;48463;43.604;3.872;2023-05-01T14:11:05;25.00;69.70
62424;DHT22;48463;43.604;3.872;2023-05-01T14:13:31;25.40;69.50
62424;DHT22;48463;43.604;3.872;2023-05-01T14:15:57;24.90;70.40
62424;DHT22;48463;43.604;3.872;2023-05-01T14:18:23;25.00;70.90
62424;DHT22;48463;43.604;3.872;2023-05-01T14:20:49;25.60;70.40
62424;DHT22;48463;43.604;3.872;2023-05-01T14:23:15;25.10;71.20
62424;DHT22;48463;43.604;3.872;2023-05-01T14:25:43;25.10;71.10
62424;DHT22;48463;43.604;3.872;2023-05-01T14:28:09;24.90;71.90
62424;DHT22;48463;43.604;3.872;2023-05-01T14:30:38;24.50;71.90
62424;DHT22;48463;43.604;3.872;2023-05-01T14:33:09;24.30;71.30
62424;DHT22;48463;43.604;3.872;2023-05-01T14:35:56;24.00;68.60
62424;DHT22;48463;43.604;3.872;2023-05-01T14:38:24;24.60;68.70
62424;DHT22;48463;43.604;3.872;2023-05-01T14:40:55;24.40;69.00
62424;DHT22;48463;43.604;3.872;2023-05-01T14:43:21;24.20;70.00
62424;DHT22;48463;43.604;3.872;2023-05-01T14:45:47;24.20;70.80
62424;DHT22;48463;43.604;3.872;2023-05-01T14:48:24;24.80;71.20
62424;DHT22;48463;43.604;3.872;2023-05-01T14:50:51;25.00;71.30
62424;DHT22;48463;43.604;3.872;2023-05-01T14:53:17;24.90;72.20
62424;DHT22;48463;43.604;3.872;2023-05-01T14:55:43;23.80;73.30
62424;DHT22;48463;43.604;3.872;2023-05-01T14:58:08;23.10;75.30
62424;DHT22;48463;43.604;3.872;2023-05-01T15:00:34;22.40;75.70
62424;DHT22;48463;43.604;3.872;2023-05-01T15:03:00;21.90;77.10
62424;DHT22;48463;43.604;3.872;2023-05-01T15:05:26;21.80;78.50
62424;DHT22;48463;43.604;3.872;2023-05-01T15:07:56;21.90;78.10
62424;DHT22;48463;43.604;3.872;2023-05-01T15:10:22;21.80;77.70
62424;DHT22;48463;43.604;3.872;2023-05-01T15:12:51;21.80;76.80
62424;DHT22;48463;43.604;3.872;2023-05-01T15:15:17;21.90;75.70
62424;DHT22;48463;43.604;3.872;2023-05-01T15:17:43;21.70;74.90
62424;DHT22;48463;43.604;3.872;2023-05-01T15:20:10;21.90;75.60
62424;DHT22;48463;43.604;3.872;2023-05-01T15:22:36;22.10;76.10
62424;DHT22;48463;43.604;3.872;2023-05-01T15:25:02;22.50;76.10
62424;DHT22;48463;43.604;3.872;2023-05-01T15:27:28;22.90;76.30
62424;DHT22;48463;43.604;3.872;2023-05-01T15:29:53;23.30;75.20
62424;DHT22;48463;43.604;3.872;2023-05-01T15:32:22;23.30;73.20
62424;DHT22;48463;43.604;3.872;2023-05-01T15:34:48;23.70;73.00
62424;DHT22;48463;43.604;3.872;2023-05-01T15:37:19;24.20;73.10
62424;DHT22;48463;43.604;3.872;2023-05-01T15:39:45;23.90;74.00
62424;DHT22;48463;43.604;3.872;2023-05-01T15:42:11;23.30;75.30
62424;DHT22;48463;43.604;3.872;2023-05-01T15:44:36;23.10;75.50
62424;DHT22;48463;43.604;3.872;2023-05-01T15:47:04;23.00;75.60
62424;DHT22;48463;43.604;3.872;2023-05-01T15:49:29;22.70;75.70
62424;DHT22;48463;43.604;3.872;2023-05-01T15:51:55;22.50;76.30
62424;DHT22;48463;43.604;3.872;2023-05-01T15:54:21;22.40;76.90
62424;DHT22;48463;43.604;3.872;2023-05-01T15:56:47;22.40;77.50
62424;DHT22;48463;43.604;3.872;2023-05-01T15:59:13;22.30;77.60
62424;DHT22;48463;43.604;3.872;2023-05-01T16:01:38;22.00;77.60
62424;DHT22;48463;43.604;3.872;2023-05-01T16:04:04;21.80;75.60
62424;DHT22;48463;43.604;3.872;2023-05-01T16:06:30;21.90;75.10
62424;DHT22;48463;43.604;3.872;2023-05-01T16:08:58;22.00;74.90
62424;DHT22;48463;43.604;3.872;2023-05-01T16:11:24;21.90;75.10
62424;DHT22;48463;43.604;3.872;2023-05-01T16:13:50;21.80;74.60
62424;DHT22;48463;43.604;3.872;2023-05-01T16:16:24;21.60;74.60
62424;DHT22;48463;43.604;3.872;2023-05-01T16:18:55;21.60;74.80
62424;DHT22;48463;43.604;3.872;2023-05-01T16:21:23;21.60;75.30
62424;DHT22;48463;43.604;3.872;2023-05-01T16:23:49;21.60;75.60
62424;DHT22;48463;43.604;3.872;2023-05-01T16:26:27;21.60;75.70
62424;DHT22;48463;43.604;3.872;2023-05-01T16:29:01;21.70;75.70
62424;DHT22;48463;43.604;3.872;2023-05-01T16:31:38;22.10;75.60
62424;DHT22;48463;43.604;3.872;2023-05-01T16:34:05;22.40;74.70
62424;DHT22;48463;43.604;3.872;2023-05-01T16:36:34;23.00;74.20